Time;durP1;ratioP1;P1;durP2;ratioP2;P2;SDS_P1;SDS_P2;PMS_P1;PMS_P2;Temp;Humidity;BMP_temperature;BMP_pressure;BME280_temperature;BME280_humidity;BME280_pressure;Samples;Min_cycle;Max_cycle;Signal;HPM_P1;HPM_P2
2021/12/15 00:01:40;;;;;;;25.08;20.55;;;6.70;99.90;;;;;;5033059;28;20764;-64
2021/12/15 00:04:09;;;;;;;25.70;21.48;;;6.50;99.90;;;;;;5033053;28;20201;-64
2021/12/15 00:06:38;;;;;;;26.45;20.90;;;6.50;99.90;;;;;;5032819;28;20255;-64
2021/12/15 00:09:10;;;;;;;23.77;19.27;;;6.50;99.90;;;;;;5033186;28;20295;-64
2021/12/15 00:11:39;;;;;;;24.92;19.98;;;6.50;99.90;;;;;;5032826;28;20284;-64
2021/12/15 00:14:09;;;;;;;23.83;18.33;;;6.70;99.90;;;;;;5045008;28;20311;-64
2021/12/15 00:16:38;;;;;;;21.33;16.90;;;6.90;99.90;;;;;;5032679;28;20240;-64
2021/12/15 00:19:07;;;;;;;23.90;19.60;;;7.10;99.90;;;;;;5033179;28;20205;-63
2021/12/15 00:21:37;;;;;;;25.65;19.90;;;7.20;99.90;;;;;;5032586;28;20417;-63
2021/12/15 00:24:07;;;;;;;16.42;14.52;;;7.40;99.90;;;;;;5032788;28;20727;-62
2021/12/15 00:26:36;;;;;;;22.88;16.10;;;7.40;99.90;;;;;;5032287;28;20307;-63
2021/12/15 00:29:06;;;;;;;20.15;17.17;;;7.50;99.90;;;;;;5032885;28;20224;-63
2021/12/15 00:31:34;;;;;;;18.30;15.95;;;7.70;99.90;;;;;;5032737;28;20234;-63
2021/12/15 00:34:05;;;;;;;19.65;16.25;;;7.70;99.90;;;;;;5032598;28;20248;-62
2021/12/15 00:36:32;;;;;;;18.30;16.33;;;7.80;99.90;;;;;;5032559;28;20247;-63
2021/12/15 00:39:05;;;;;;;15.38;13.57;;;8.00;99.90;;;;;;5032999;28;20292;-63
2021/12/15 00:41:33;;;;;;;17.80;15.77;;;8.10;99.90;;;;;;5032306;28;20220;-63
2021/12/15 00:44:01;;;;;;;16.17;14.00;;;8.10;99.90;;;;;;5033642;28;20287;-62
2021/12/15 00:46:29;;;;;;;16.63;14.32;;;8.10;99.90;;;;;;5032935;28;20247;-63
2021/12/15 00:48:58;;;;;;;13.30;11.90;;;8.20;99.90;;;;;;5033034;28;20299;-63
2021/12/15 00:51:26;;;;;;;13.48;12.18;;;8.30;99.90;;;;;;5032786;28;20666;-62
2021/12/15 00:53:54;;;;;;;15.60;13.07;;;8.30;99.90;;;;;;5032284;28;20299;-63
2021/12/15 00:56:24;;;;;;;13.98;12.50;;;8.40;99.90;;;;;;5031543;28;20223;-63
2021/12/15 00:58:52;;;;;;;14.70;13.25;;;8.30;99.90;;;;;;5033083;28;20281;-63
2021/12/15 01:01:23;;;;;;;13.13;11.88;;;8.20;99.90;;;;;;5032951;28;20235;-63
2021/12/15 01:03:51;;;;;;;13.68;12.38;;;8.20;99.90;;;;;;5033375;28;20204;-63
2021/12/15 01:06:21;;;;;;;14.95;12.43;;;8.10;99.90;;;;;;5036724;28;20252;-62
2021/12/15 01:08:55;;;;;;;14.50;13.05;;;8.20;99.90;;;;;;5038527;28;20235;-62
2021/12/15 01:11:42;;;;;;;13.13;11.85;;;8.00;99.90;;;;;;5037291;28;20216;-62
2021/12/15 01:19:51;;;;;;;12.40;11.20;;;8.10;99.90;;;;;;5043173;28;20630;-63
2021/12/15 01:22:24;;;;;;;15.00;13.07;;;8.10;99.90;;;;;;5013139;28;20216;-63
2021/12/15 01:24:54;;;;;;;16.05;14.32;;;8.10;99.90;;;;;;5013127;28;20765;-63
2021/12/15 01:27:27;;;;;;;15.95;14.10;;;8.10;99.90;;;;;;5030352;28;20740;-62
2021/12/15 01:29:55;;;;;;;24.40;14.90;;;7.70;99.90;;;;;;5033524;28;20263;-63
2021/12/15 01:32:23;;;;;;;15.07;13.52;;;7.60;99.90;;;;;;5034895;28;20288;-63
2021/12/15 01:34:51;;;;;;;15.93;14.32;;;7.50;99.90;;;;;;5033102;28;20263;-64
2021/12/15 01:37:19;;;;;;;16.90;14.63;;;7.40;99.90;;;;;;5032264;28;20299;-64
2021/12/15 01:39:53;;;;;;;18.48;15.85;;;7.20;99.90;;;;;;5032003;28;20275;-64
2021/12/15 01:42:21;;;;;;;18.05;16.13;;;6.90;99.90;;;;;;5031984;28;20739;-64
2021/12/15 01:47:37;;;;;;;18.15;16.10;;;6.80;99.90;;;;;;5032009;28;20311;-64
2021/12/15 01:50:07;;;;;;;19.95;16.13;;;6.80;99.90;;;;;;5031543;28;20675;-64
2021/12/15 01:52:37;;;;;;;20.48;16.65;;;6.80;99.90;;;;;;5031646;28;20681;-64
2021/12/15 01:55:10;;;;;;;21.17;17.33;;;6.80;99.90;;;;;;5031994;28;20370;-63
2021/12/15 01:57:39;;;;;;;22.48;19.17;;;6.70;99.90;;;;;;5029557;28;20256;-63
2021/12/15 02:00:12;;;;;;;18.70;15.90;;;6.80;99.90;;;;;;5019546;28;20299;-63
2021/12/15 02:02:40;;;;;;;19.88;17.42;;;7.00;99.90;;;;;;5033121;28;20243;-63
2021/12/15 02:05:09;;;;;;;20.63;18.52;;;7.40;99.90;;;;;;5033239;28;20647;-63
2021/12/15 02:07:38;;;;;;;17.38;15.68;;;7.70;99.90;;;;;;5032512;28;20644;-63
2021/12/15 02:10:07;;;;;;;17.25;14.77;;;7.90;99.90;;;;;;5032485;28;20624;-63
2021/12/15 02:12:56;;;;;;;19.67;16.08;;;8.00;99.90;;;;;;5012673;28;20201;-63
2021/12/15 02:15:29;;;;;;;16.00;14.30;;;8.10;99.90;;;;;;5012187;28;20244;-63
2021/12/15 02:17:58;;;;;;;15.15;13.63;;;7.80;99.90;;;;;;5012775;28;20620;-63
2021/12/15 02:20:31;;;;;;;16.08;14.48;;;7.50;99.90;;;;;;5013152;28;20244;-63
2021/12/15 02:23:00;;;;;;;16.85;15.15;;;7.20;99.90;;;;;;5027414;28;20283;-62
2021/12/15 02:25:28;;;;;;;15.90;14.30;;;6.90;99.90;;;;;;5043181;28;20216;-63
2021/12/15 02:27:56;;;;;;;16.05;14.43;;;6.70;99.90;;;;;;5047965;23;20323;-72
2021/12/15 02:30:43;;;;;;;17.30;15.60;;;6.60;99.90;;;;;;5024761;28;20255;-72
2021/12/15 02:33:37;;;;;;;17.38;15.43;;;6.70;99.90;;;;;;5030991;28;20570;-73
2021/12/15 02:38:49;;;;;;;16.88;15.27;;;6.50;99.90;;;;;;4991805;28;20244;-72
2021/12/15 02:41:23;;;;;;;18.70;16.73;;;6.50;99.90;;;;;;4991776;28;20201;-72
2021/12/15 02:43:53;;;;;;;18.33;16.40;;;6.40;99.90;;;;;;4991798;28;20225;-72
2021/12/15 02:46:21;;;;;;;19.98;17.88;;;6.30;99.90;;;;;;4993724;28;20190;-72
2021/12/15 02:48:50;;;;;;;20.70;18.63;;;6.20;99.90;;;;;;4995414;28;20229;-72
2021/12/15 02:51:21;;;;;;;24.48;19.58;;;6.20;99.90;;;;;;4995607;28;20637;-72
2021/12/15 02:53:51;;;;;;;22.77;20.35;;;6.10;99.90;;;;;;4994099;28;20572;-72
2021/12/15 02:56:19;;;;;;;24.33;20.15;;;6.20;99.90;;;;;;4994706;28;20218;-72
2021/12/15 02:58:52;;;;;;;21.08;18.75;;;6.20;99.90;;;;;;5010099;28;20252;-72
2021/12/15 03:01:30;;;;;;;22.98;20.08;;;6.20;99.90;;;;;;5017604;28;20208;-71
2021/12/15 03:06:54;;;;;;;21.70;19.08;;;6.10;99.90;;;;;;5027058;28;20220;-70
2021/12/15 03:15:29;;;;;;;25.00;22.30;;;6.00;99.90;;;;;;5013867;28;20222;-70
2021/12/15 03:18:01;;;;;;;23.75;21.27;;;6.10;99.90;;;;;;5014177;28;20213;-70
2021/12/15 03:20:31;;;;;;;25.00;21.90;;;6.10;99.90;;;;;;5014273;28;20263;-71
2021/12/15 03:23:01;;;;;;;23.85;20.70;;;6.00;99.90;;;;;;4997137;28;20632;-70
2021/12/15 03:25:31;;;;;;;26.25;20.88;;;6.10;99.90;;;;;;4994403;28;20630;-70
2021/12/15 03:33:55;;;;;;;28.08;24.00;;;6.30;99.90;;;;;;5028479;28;20231;-71
2021/12/15 03:36:37;;;;;;;23.42;20.42;;;6.40;99.90;;;;;;5023819;28;20653;-70
2021/12/15 03:39:10;;;;;;;22.98;20.13;;;6.50;99.90;;;;;;4994367;28;20851;-70
2021/12/15 03:41:38;;;;;;;20.92;18.35;;;6.60;99.90;;;;;;4994379;28;20224;-71
2021/12/15 03:44:08;;;;;;;21.92;19.13;;;7.00;99.90;;;;;;4994173;28;20285;-71
2021/12/15 03:46:37;;;;;;;26.02;16.10;;;7.00;99.90;;;;;;4993848;28;20225;-71
2021/12/15 03:49:06;;;;;;;22.40;19.60;;;7.10;99.90;;;;;;4994471;28;20225;-72
2021/12/15 03:51:34;;;;;;;21.08;17.00;;;7.30;99.90;;;;;;4994278;28;20746;-71
2021/12/15 03:54:01;;;;;;;18.25;16.23;;;7.10;99.90;;;;;;4994186;28;20358;-71
2021/12/15 03:56:31;;;;;;;18.15;16.23;;;7.10;99.90;;;;;;4993550;28;20639;-71
2021/12/15 03:58:59;;;;;;;18.55;16.75;;;7.30;99.90;;;;;;5010256;28;20312;-71
2021/12/15 04:01:27;;;;;;;17.33;15.57;;;7.50;99.90;;;;;;5017209;28;20677;-71
2021/12/15 04:03:56;;;;;;;17.27;15.48;;;7.70;99.90;;;;;;5033351;28;20196;-71
2021/12/15 04:06:26;;;;;;;18.58;16.60;;;7.70;99.90;;;;;;5025114;28;20276;-70
2021/12/15 04:08:55;;;;;;;18.05;16.02;;;7.60;99.90;;;;;;5013371;28;20222;-72
2021/12/15 04:11:26;;;;;;;18.25;16.35;;;7.40;99.90;;;;;;5013213;28;20236;-72
2021/12/15 04:13:59;;;;;;;17.55;15.65;;;7.20;99.90;;;;;;5013294;28;20214;-71
2021/12/15 04:16:43;;;;;;;21.60;18.95;;;7.00;99.90;;;;;;5013085;28;20225;-72
2021/12/15 04:19:12;;;;;;;19.60;17.60;;;6.70;99.90;;;;;;5013177;28;20252;-71
2021/12/15 04:21:41;;;;;;;20.77;17.85;;;6.50;99.90;;;;;;5002572;28;20233;-72
2021/12/15 04:24:13;;;;;;;21.20;19.02;;;6.40;99.90;;;;;;4993475;28;20285;-71
2021/12/15 04:26:41;;;;;;;18.98;16.98;;;6.50;99.90;;;;;;4993119;28;20228;-72
2021/12/15 04:29:11;;;;;;;23.80;18.67;;;6.40;99.90;;;;;;4993055;28;20237;-71
2021/12/15 04:31:42;;;;;;;22.02;19.73;;;6.60;99.90;;;;;;5005378;28;20198;-71
2021/12/15 04:34:11;;;;;;;21.00;18.67;;;6.50;99.90;;;;;;5012750;28;20217;-72
2021/12/15 04:36:43;;;;;;;20.63;18.52;;;6.40;99.90;;;;;;5009218;28;20313;-71
2021/12/15 04:39:13;;;;;;;22.58;19.02;;;6.30;99.90;;;;;;5003670;28;20245;-72
2021/12/15 04:41:46;;;;;;;19.90;17.77;;;6.30;99.90;;;;;;5012574;28;20193;-71
2021/12/15 04:44:17;;;;;;;20.73;18.73;;;6.20;99.90;;;;;;5012801;28;20232;-71
2021/12/15 04:46:48;;;;;;;20.20;18.10;;;6.30;99.90;;;;;;5011203;28;20288;-71
2021/12/15 04:49:19;;;;;;;20.25;17.40;;;6.40;99.90;;;;;;5012428;28;20241;-70
2021/12/15 04:51:48;;;;;;;20.77;18.67;;;6.60;99.90;;;;;;4999706;28;20334;-70
2021/12/15 04:54:17;;;;;;;19.00;16.70;;;6.80;99.90;;;;;;4992958;28;20221;-71
2021/12/15 04:56:46;;;;;;;18.23;15.80;;;6.80;99.90;;;;;;4992415;28;20261;-69
2021/12/15 04:59:16;;;;;;;17.65;15.85;;;7.00;99.90;;;;;;5005014;28;20214;-72
2021/12/15 05:01:45;;;;;;;19.95;16.52;;;7.00;99.90;;;;;;5015837;28;20251;-71
2021/12/15 05:04:15;;;;;;;18.90;16.67;;;7.20;99.90;;;;;;5031945;28;20246;-72
2021/12/15 05:06:43;;;;;;;18.00;15.70;;;7.20;99.90;;;;;;5004987;28;20224;-70
2021/12/15 05:09:12;;;;;;;22.88;16.90;;;7.30;99.90;;;;;;4991599;28;20248;-71
2021/12/15 05:11:40;;;;;;;22.17;16.75;;;7.40;99.90;;;;;;4992457;28;20260;-71
2021/12/15 05:14:08;;;;;;;18.95;14.85;;;7.50;99.90;;;;;;4992611;28;20201;-70
2021/12/15 05:16:37;;;;;;;18.95;16.88;;;7.50;99.90;;;;;;4992244;28;20218;-71
2021/12/15 05:19:06;;;;;;;19.02;16.60;;;7.70;99.90;;;;;;4992319;28;20217;-70
2021/12/15 05:21:35;;;;;;;20.00;17.35;;;7.70;99.90;;;;;;5004513;28;20201;-71
2021/12/15 05:24:12;;;;;;;20.50;17.20;;;7.80;99.90;;;;;;5011954;28;20220;-71
2021/12/15 05:26:41;;;;;;;17.90;16.00;;;7.80;99.90;;;;;;4993357;28;20240;-71
2021/12/15 05:29:09;;;;;;;23.70;19.63;;;7.90;99.90;;;;;;4998476;28;20308;-70
2021/12/15 05:31:41;;;;;;;18.08;16.15;;;7.90;99.90;;;;;;5017719;28;20634;-72
2021/12/15 05:34:09;;;;;;;19.27;16.40;;;8.00;99.90;;;;;;5015587;28;20193;-72
2021/12/15 05:36:38;;;;;;;21.20;16.73;;;8.00;99.90;;;;;;4992203;28;20238;-72
2021/12/15 05:39:07;;;;;;;19.88;17.10;;;8.10;99.90;;;;;;4991579;28;20256;-73
2021/12/15 05:41:35;;;;;;;21.63;18.52;;;8.20;99.90;;;;;;4992418;28;20276;-72
2021/12/15 05:44:05;;;;;;;20.40;17.42;;;8.30;99.90;;;;;;4998929;28;20295;-72
2021/12/15 05:46:33;;;;;;;25.40;20.40;;;8.30;99.90;;;;;;4991326;28;20222;-71
2021/12/15 05:49:04;;;;;;;17.77;15.68;;;8.30;99.90;;;;;;4991309;28;20279;-71
2021/12/15 05:51:32;;;;;;;23.42;17.08;;;8.40;99.90;;;;;;4994203;28;20232;-70
2021/12/15 05:54:00;;;;;;;23.20;19.33;;;8.40;99.90;;;;;;5010447;28;20235;-70
2021/12/15 05:56:28;;;;;;;23.52;18.58;;;8.40;99.90;;;;;;5016226;28;20209;-69
2021/12/15 05:58:56;;;;;;;23.95;20.20;;;8.30;99.90;;;;;;5016137;28;20303;-70
2021/12/15 06:01:24;;;;;;;22.35;19.80;;;8.10;99.90;;;;;;5021194;28;20228;-70
2021/12/15 06:03:52;;;;;;;27.20;21.35;;;8.00;99.90;;;;;;5026701;28;20208;-70
2021/12/15 06:06:21;;;;;;;34.40;25.92;;;7.70;99.90;;;;;;5027905;28;20350;-69
2021/12/15 06:08:49;;;;;;;33.95;25.60;;;7.60;99.90;;;;;;4995632;28;20269;-70
2021/12/15 06:11:17;;;;;;;27.02;20.75;;;7.60;99.90;;;;;;5025898;28;20207;-70
2021/12/15 06:13:48;;;;;;;34.22;23.33;;;7.30;99.90;;;;;;5004371;28;20224;-69
2021/12/15 06:16:17;;;;;;;26.95;20.48;;;7.20;99.90;;;;;;5027693;28;20736;-69
2021/12/15 06:18:46;;;;;;;26.73;21.25;;;7.10;99.90;;;;;;5023787;28;20225;-70
2021/12/15 06:21:14;;;;;;;23.75;18.88;;;7.10;99.90;;;;;;5025314;28;20873;-68
2021/12/15 06:23:44;;;;;;;24.85;19.40;;;7.10;99.90;;;;;;5024929;28;20239;-70
2021/12/15 06:26:12;;;;;;;24.98;20.00;;;7.00;99.90;;;;;;5032778;28;20278;-70
2021/12/15 06:28:40;;;;;;;22.25;19.25;;;7.00;99.90;;;;;;5028536;28;20667;-70
2021/12/15 06:31:11;;;;;;;23.65;19.00;;;6.90;99.90;;;;;;5001727;28;20244;-71
2021/12/15 06:33:42;;;;;;;22.98;18.85;;;6.90;99.90;;;;;;5029750;28;20203;-71
2021/12/15 06:36:13;;;;;;;24.67;19.60;;;6.90;99.90;;;;;;5032331;28;20221;-71
2021/12/15 06:38:46;;;;;;;22.77;18.00;;;6.90;99.90;;;;;;5007375;28;20236;-70
2021/12/15 06:41:15;;;;;;;21.75;18.08;;;6.80;99.90;;;;;;5026822;28;20739;-71
2021/12/15 06:43:49;;;;;;;27.23;21.15;;;6.80;99.90;;;;;;5022265;28;20283;-71
2021/12/15 06:46:48;;;;;;;26.63;21.00;;;6.70;99.90;;;;;;5030512;28;20287;-70
2021/12/15 07:00:17;;;;;;;40.35;28.02;;;6.10;99.90;;;;;;5003019;28;20304;-70
2021/12/15 07:02:45;;;;;;;44.55;29.17;;;6.10;99.90;;;;;;5010609;28;20925;-70
2021/12/15 07:05:14;;;;;;;42.40;29.45;;;6.00;99.90;;;;;;5024768;28;20219;-68
2021/12/15 07:07:44;;;;;;;44.90;28.55;;;6.10;99.90;;;;;;5031777;28;20245;-71
2021/12/15 07:10:16;;;;;;;36.38;26.27;;;6.10;99.90;;;;;;5009714;28;20310;-70
2021/12/15 07:12:45;;;;;;;40.92;28.10;;;6.20;99.90;;;;;;5003112;28;20248;-69
2021/12/15 07:15:13;;;;;;;40.00;29.63;;;6.30;99.90;;;;;;5016606;28;20232;-71
2021/12/15 07:17:43;;;;;;;42.53;29.60;;;6.30;99.90;;;;;;5016332;28;20320;-70
2021/12/15 07:22:59;;;;;;;34.17;26.67;;;6.40;99.90;;;;;;5011430;28;20248;-70
2021/12/15 07:25:30;;;;;;;34.25;24.63;;;6.40;99.90;;;;;;5028752;28;20295;-70
2021/12/15 07:27:59;;;;;;;36.03;24.58;;;6.50;99.90;;;;;;5031233;28;20263;-70
2021/12/15 07:30:28;;;;;;;32.05;24.60;;;6.50;99.90;;;;;;5018982;28;20205;-70
2021/12/15 07:32:56;;;;;;;31.27;24.52;;;6.60;99.90;;;;;;5029532;28;20283;-69
2021/12/15 07:35:25;;;;;;;32.03;24.95;;;6.60;99.90;;;;;;5033898;28;20266;-71
2021/12/15 07:37:53;;;;;;;27.23;22.75;;;6.70;99.90;;;;;;5032099;28;20266;-69
2021/12/15 07:40:23;;;;;;;32.58;27.95;;;6.70;99.90;;;;;;5033635;28;20284;-70
2021/12/15 07:42:58;;;;;;;31.23;25.08;;;6.70;99.90;;;;;;5032083;28;20231;-71
2021/12/15 07:45:27;;;;;;;27.95;22.95;;;6.60;99.90;;;;;;5033285;28;20284;-69
2021/12/15 07:47:59;;;;;;;29.85;24.63;;;6.50;99.90;;;;;;5020155;28;20248;-71
2021/12/15 07:50:28;;;;;;;34.50;25.23;;;6.50;99.90;;;;;;5013677;28;20244;-70
2021/12/15 07:52:56;;;;;;;33.35;27.55;;;6.40;99.90;;;;;;5013421;28;20276;-71
2021/12/15 07:55:26;;;;;;;32.45;24.35;;;6.40;99.90;;;;;;5013401;28;20251;-70
2021/12/15 07:57:58;;;;;;;33.92;26.23;;;6.40;99.90;;;;;;5013388;28;20240;-71
2021/12/15 08:00:26;;;;;;;39.78;26.75;;;6.40;99.90;;;;;;5009601;28;20244;-71
2021/12/15 08:02:55;;;;;;;31.60;25.58;;;6.40;99.90;;;;;;5029736;28;20296;-72
2021/12/15 08:05:24;;;;;;;36.30;27.05;;;6.40;99.90;;;;;;5033058;28;20296;-71
2021/12/15 08:07:52;;;;;;;33.03;25.33;;;6.40;99.90;;;;;;5033224;28;20645;-70
2021/12/15 08:10:21;;;;;;;40.03;28.10;;;6.30;99.90;;;;;;5033490;28;20320;-71
2021/12/15 08:12:50;;;;;;;43.17;31.02;;;6.30;99.90;;;;;;5033452;28;20196;-71
2021/12/15 08:15:23;;;;;;;38.90;29.15;;;6.30;99.90;;;;;;5033147;28;20684;-69
2021/12/15 08:17:52;;;;;;;47.28;31.65;;;6.30;99.90;;;;;;5033119;28;20216;-70
2021/12/15 08:20:23;;;;;;;43.10;30.27;;;6.30;99.90;;;;;;5018330;28;20291;-70
2021/12/15 08:22:51;;;;;;;44.83;31.90;;;6.30;99.90;;;;;;4993936;28;20281;-70
2021/12/15 08:25:21;;;;;;;40.67;30.45;;;6.20;99.90;;;;;;4993619;28;20210;-70
2021/12/15 08:27:50;;;;;;;40.17;28.50;;;6.20;99.90;;;;;;5019080;23;20261;-65
2021/12/15 08:30:24;;;;;;;42.10;30.25;;;6.20;99.90;;;;;;5040379;28;20247;-66
2021/12/15 08:32:59;;;;;;;38.75;30.50;;;6.20;99.90;;;;;;5033947;28;20195;-66
2021/12/15 08:35:30;;;;;;;42.95;30.92;;;6.20;99.90;;;;;;5032552;28;20232;-65
2021/12/15 08:37:58;;;;;;;38.80;29.92;;;6.20;99.90;;;;;;5035518;28;20307;-65
2021/12/15 08:40:28;;;;;;;32.47;27.58;;;6.20;99.90;;;;;;5052229;28;20214;-65
2021/12/15 08:42:57;;;;;;;35.40;27.75;;;6.20;99.90;;;;;;5051667;28;20290;-65
2021/12/15 08:45:27;;;;;;;38.33;29.50;;;6.20;99.90;;;;;;5052101;28;20287;-65
2021/12/15 08:47:58;;;;;;;42.75;28.65;;;6.30;99.90;;;;;;5052285;28;20219;-66
2021/12/15 08:50:30;;;;;;;40.53;28.77;;;6.40;99.90;;;;;;5052214;28;20295;-65
2021/12/15 08:52:58;;;;;;;38.45;27.83;;;6.40;99.90;;;;;;5050261;28;20227;-65
2021/12/15 08:55:26;;;;;;;36.33;27.58;;;6.40;99.90;;;;;;5012053;28;20288;-66
2021/12/15 08:57:57;;;;;;;33.13;26.90;;;6.40;99.90;;;;;;5012522;28;20300;-65
2021/12/15 09:00:27;;;;;;;32.30;26.63;;;6.50;99.90;;;;;;5018420;28;20275;-65
2021/12/15 09:02:56;;;;;;;31.85;27.23;;;6.50;99.90;;;;;;5043803;28;20200;-65
2021/12/15 09:05:24;;;;;;;32.03;24.80;;;6.50;99.90;;;;;;5051388;28;20199;-65
2021/12/15 09:07:54;;;;;;;33.38;25.17;;;6.40;99.90;;;;;;5047191;28;20224;-65
2021/12/15 09:10:24;;;;;;;34.35;25.58;;;6.50;99.90;;;;;;5032062;28;20289;-65
2021/12/15 09:12:52;;;;;;;33.45;25.45;;;6.60;99.90;;;;;;5031973;28;20692;-65
2021/12/15 09:15:21;;;;;;;29.83;23.88;;;6.60;99.90;;;;;;5031396;28;20669;-64
2021/12/15 09:17:50;;;;;;;28.33;24.83;;;6.60;99.90;;;;;;5031661;28;20235;-65
2021/12/15 09:20:21;;;;;;;30.30;23.65;;;6.50;99.90;;;;;;5031761;28;20283;-65
2021/12/15 09:22:49;;;;;;;25.27;22.45;;;6.60;99.90;;;;;;5032121;28;20283;-64
2021/12/15 09:25:17;;;;;;;25.50;21.02;;;6.60;99.90;;;;;;5032249;28;20720;-65
2021/12/15 09:27:46;;;;;;;29.63;23.95;;;6.70;99.90;;;;;;5031453;28;20188;-65
2021/12/15 09:30:18;;;;;;;27.90;23.73;;;6.60;99.90;;;;;;5031535;28;20275;-65
2021/12/15 09:32:47;;;;;;;27.55;22.55;;;6.70;99.90;;;;;;5032121;28;20618;-65
2021/12/15 09:35:18;;;;;;;26.73;23.25;;;6.70;99.90;;;;;;5030990;28;20228;-64
2021/12/15 09:37:47;;;;;;;25.17;21.38;;;6.80;99.90;;;;;;5031591;28;20193;-64
2021/12/15 09:40:18;;;;;;;22.92;20.42;;;6.90;99.90;;;;;;5035654;28;20330;-65
2021/12/15 09:42:47;;;;;;;25.15;22.15;;;6.90;99.90;;;;;;5051497;28;20725;-65
2021/12/15 09:45:27;;;;;;;24.08;21.25;;;7.00;99.90;;;;;;5050909;28;20253;-65
2021/12/15 09:56:20;;;;;;;24.38;21.77;;;7.00;99.90;;;;;;5051359;28;20219;-65
2021/12/15 09:57:07;;;;;;;23.17;20.70;;;7.30;99.90;;;;;;5050803;28;20279;-65
2021/12/15 10:02:47;;;;;;;26.38;20.95;;;7.40;99.90;;;;;;5027831;28;20307;-65
2021/12/15 10:05:45;;;;;;;23.88;21.27;;;7.40;99.90;;;;;;5050676;28;20207;-64
2021/12/15 10:11:31;;;;;;;23.48;20.73;;;7.40;99.90;;;;;;5051102;28;20203;-65
2021/12/15 10:19:43;;;;;;;20.80;18.67;;;7.50;99.90;;;;;;5011288;28;20664;-64
2021/12/15 10:22:15;;;;;;;20.92;18.70;;;7.60;99.90;;;;;;5011552;28;20260;-65
2021/12/15 10:24:53;;;;;;;18.50;16.05;;;7.60;99.90;;;;;;5010979;28;20237;-65
2021/12/15 10:27:37;;;;;;;20.90;18.80;;;7.60;99.90;;;;;;5011288;28;20205;-65
2021/12/15 10:30:10;;;;;;;21.13;19.02;;;7.70;99.90;;;;;;5013870;28;20312;-65
2021/12/15 10:32:40;;;;;;;19.58;17.55;;;7.60;99.90;;;;;;5039550;28;20202;-64
2021/12/15 10:35:13;;;;;;;20.23;18.15;;;7.70;99.90;;;;;;5030240;28;20280;-64
2021/12/15 10:37:42;;;;;;;20.83;18.48;;;7.80;99.90;;;;;;5030930;28;20212;-64
2021/12/15 10:40:19;;;;;;;21.98;19.75;;;8.00;99.90;;;;;;5030776;28;20307;-63
2021/12/15 10:42:48;;;;;;;20.88;18.65;;;7.90;99.90;;;;;;5031051;28;20228;-64
2021/12/15 10:45:17;;;;;;;20.15;18.15;;;8.10;99.90;;;;;;5030737;28;20287;-64
2021/12/15 10:47:51;;;;;;;21.83;19.52;;;8.00;99.90;;;;;;5030855;28;20279;-64
2021/12/15 10:50:23;;;;;;;19.80;17.80;;;8.10;99.90;;;;;;5030913;28;20270;-64
2021/12/15 10:52:57;;;;;;;20.25;18.15;;;8.10;99.90;;;;;;5030762;28;20229;-64
2021/12/15 10:55:35;;;;;;;21.73;19.38;;;8.10;99.90;;;;;;5030420;28;20224;-64
2021/12/15 10:58:23;;;;;;;19.95;17.88;;;8.20;99.90;;;;;;5030652;28;20244;-64
2021/12/15 11:00:51;;;;;;;20.23;17.35;;;8.30;99.90;;;;;;5030656;28;20632;-64
2021/12/15 11:03:23;;;;;;;18.42;16.52;;;8.40;99.90;;;;;;5041228;28;20211;-63
2021/12/15 11:06:23;;;;;;;18.52;16.58;;;8.50;99.90;;;;;;5041414;28;20208;-64
2021/12/15 11:09:13;;;;;;;17.25;15.55;;;8.60;99.90;;;;;;5054196;28;20306;-64
2021/12/15 11:11:59;;;;;;;18.20;16.40;;;8.60;99.90;;;;;;5054086;28;20645;-65
2021/12/15 11:14:30;;;;;;;18.83;17.00;;;8.50;99.90;;;;;;5053501;28;20250;-63
2021/12/15 11:17:07;;;;;;;19.45;17.45;;;8.50;99.90;;;;;;5053233;28;20228;-64
2021/12/15 11:19:41;;;;;;;20.88;18.15;;;8.50;99.90;;;;;;5053890;28;20302;-66
2021/12/15 11:22:50;;;;;;;18.85;16.88;;;8.50;99.90;;;;;;5053694;28;20235;-64
2021/12/15 11:25:22;;;;;;;22.50;18.23;;;8.60;99.90;;;;;;5046125;28;20651;-66
2021/12/15 11:27:57;;;;;;;39.25;29.85;;;8.70;99.90;;;;;;5053594;28;20196;-66
2021/12/15 11:30:30;;;;;;;29.77;26.30;;;8.70;99.90;;;;;;5052633;28;20238;-63
2021/12/15 11:33:00;;;;;;;24.67;22.08;;;8.80;99.90;;;;;;5053593;28;20286;-66
2021/12/15 11:35:30;;;;;;;22.33;19.92;;;8.60;99.90;;;;;;5044767;28;20287;-63
2021/12/15 11:38:03;;;;;;;21.30;19.10;;;8.60;99.90;;;;;;5053563;28;20254;-64
2021/12/15 11:40:39;;;;;;;21.42;19.23;;;8.70;99.90;;;;;;5053502;28;20247;-64
2021/12/15 11:43:09;;;;;;;23.25;20.85;;;8.80;99.90;;;;;;5053787;28;20890;-65
2021/12/15 11:45:42;;;;;;;22.35;19.80;;;8.80;99.90;;;;;;5052682;28;20279;-65
2021/12/15 11:48:22;;;;;;;29.75;25.40;;;8.80;99.90;;;;;;5053386;28;20270;-66
2021/12/15 11:50:53;;;;;;;22.13;19.83;;;8.80;99.90;;;;;;5053561;28;20612;-65
2021/12/15 11:53:35;;;;;;;21.73;19.52;;;8.70;99.90;;;;;;5053296;28;20231;-64
2021/12/15 11:56:21;;;;;;;21.60;19.33;;;8.70;99.90;;;;;;5053062;28;20278;-65
2021/12/15 11:58:53;;;;;;;23.20;20.85;;;8.70;99.90;;;;;;5052762;28;20345;-65
2021/12/15 12:01:46;;;;;;;21.90;19.45;;;8.70;99.90;;;;;;5053485;28;20656;-65
2021/12/15 12:04:22;;;;;;;23.60;17.50;;;8.70;99.90;;;;;;5045605;28;20614;-65
2021/12/15 12:06:54;;;;;;;20.67;18.52;;;8.90;99.90;;;;;;5013577;28;20240;-65
2021/12/15 12:09:23;;;;;;;20.15;18.08;;;9.00;99.90;;;;;;5013295;28;20674;-65
2021/12/15 12:11:58;;;;;;;21.92;19.52;;;9.00;99.90;;;;;;5013224;28;20284;-64
2021/12/15 12:14:40;;;;;;;21.95;19.00;;;8.90;99.90;;;;;;5021024;28;20299;-64
2021/12/15 12:17:12;;;;;;;22.30;19.38;;;9.00;99.90;;;;;;5032908;28;20230;-65
2021/12/15 12:19:44;;;;;;;22.15;19.75;;;9.00;99.90;;;;;;5033055;28;20244;-65
2021/12/15 12:22:13;;;;;;;19.50;17.50;;;9.10;99.90;;;;;;5033020;28;20272;-65
2021/12/15 12:24:44;;;;;;;20.95;18.67;;;9.00;99.90;;;;;;5032614;28;20239;-64
2021/12/15 12:27:13;;;;;;;20.42;18.33;;;9.10;99.90;;;;;;5032569;28;20193;-65
2021/12/15 12:29:43;;;;;;;22.80;20.35;;;9.10;99.90;;;;;;5041655;28;20228;-64
2021/12/15 12:32:12;;;;;;;19.17;17.27;;;9.10;99.90;;;;;;5052676;28;20278;-65
2021/12/15 12:34:42;;;;;;;21.98;19.52;;;9.10;99.90;;;;;;5043940;28;20824;-64
2021/12/15 12:37:15;;;;;;;22.08;18.55;;;9.20;99.90;;;;;;5052083;28;20566;-66
2021/12/15 12:39:44;;;;;;;20.05;18.10;;;9.20;99.90;;;;;;5052776;28;20310;-65
2021/12/15 12:42:29;;;;;;;20.85;17.30;;;9.10;99.90;;;;;;5052516;28;20768;-65
2021/12/15 12:45:15;;;;;;;21.23;19.00;;;9.00;99.90;;;;;;5039294;28;20239;-65
2021/12/15 12:47:59;;;;;;;21.83;19.23;;;8.80;99.90;;;;;;5032167;28;20232;-65
2021/12/15 13:01:34;;;;;;;20.92;18.83;;;8.80;99.90;;;;;;5052162;28;20306;-66
2021/12/15 13:04:10;;;;;;;20.70;18.48;;;9.00;99.90;;;;;;5046058;28;20200;-66
2021/12/15 13:06:41;;;;;;;20.38;18.27;;;9.00;99.90;;;;;;5050630;28;20743;-66
2021/12/15 13:09:15;;;;;;;21.98;18.95;;;9.10;99.90;;;;;;5052033;28;20212;-65
2021/12/15 13:11:48;;;;;;;21.80;19.52;;;9.20;99.90;;;;;;5052094;28;20228;-65
2021/12/15 13:14:20;;;;;;;19.85;17.83;;;9.20;99.90;;;;;;5043471;28;20275;-65
2021/12/15 13:16:54;;;;;;;21.55;18.50;;;9.20;99.90;;;;;;5031471;28;20660;-66
2021/12/15 13:19:26;;;;;;;21.48;19.08;;;9.20;99.90;;;;;;5032109;28;20212;-65
2021/12/15 13:22:05;;;;;;;19.15;17.15;;;9.30;99.90;;;;;;5031809;28;20758;-65
2021/12/15 13:30:41;;;;;;;21.20;18.95;;;9.20;99.90;;;;;;5011501;28;20549;-65
2021/12/15 13:33:16;;;;;;;19.52;17.48;;;9.20;99.90;;;;;;5030259;28;20298;-65
2021/12/15 13:35:48;;;;;;;20.23;17.73;;;9.20;99.90;;;;;;5042988;28;20238;-65
2021/12/15 13:38:21;;;;;;;19.35;17.45;;;9.20;99.90;;;;;;5051719;28;20310;-65
2021/12/15 13:40:54;;;;;;;21.60;19.27;;;9.20;99.90;;;;;;5051367;28;20220;-65
2021/12/15 13:43:39;;;;;;;21.00;17.90;;;9.10;99.90;;;;;;5048453;28;20227;-66
2021/12/15 13:46:10;;;;;;;19.98;17.88;;;9.00;99.90;;;;;;5031748;28;20188;-65
2021/12/15 13:49:18;;;;;;;18.83;16.52;;;9.00;99.90;;;;;;5031323;28;20220;-65
2021/12/15 13:52:01;;;;;;;21.70;18.17;;;8.90;99.90;;;;;;5031172;28;20224;-65
2021/12/15 13:54:53;;;;;;;20.40;17.27;;;8.90;99.90;;;;;;5031371;28;20276;-65
2021/12/15 13:57:25;;;;;;;20.67;16.83;;;8.80;99.90;;;;;;5031176;28;20618;-65
2021/12/15 14:00:26;;;;;;;18.55;16.17;;;8.70;99.90;;;;;;5031297;28;20251;-65
2021/12/15 14:02:59;;;;;;;18.25;16.35;;;8.60;99.90;;;;;;5038590;28;20294;-65
2021/12/15 14:05:31;;;;;;;19.42;16.42;;;8.60;99.90;;;;;;5042729;28;20207;-65
2021/12/15 14:08:04;;;;;;;19.27;17.20;;;8.70;99.90;;;;;;5051418;28;20239;-66
2021/12/15 14:10:54;;;;;;;19.45;17.40;;;8.70;99.90;;;;;;5051103;28;20196;-65
2021/12/15 14:13:36;;;;;;;19.88;17.58;;;8.70;99.90;;;;;;5046913;28;20680;-65
2021/12/15 14:16:04;;;;;;;18.90;17.00;;;8.70;99.90;;;;;;5031097;28;20284;-65